sensor_id;sensor_type;location;lat;lon;timestamp;P1;durP1;ratioP1;P2;durP2;ratioP2
56363;SDS011;42261;52.094;4.326;2022-08-24T00:02:39;1.10;;;0.70;;
56363;SDS011;42261;52.094;4.326;2022-08-24T00:05:23;1.30;;;0.80;;
56363;SDS011;42261;52.094;4.326;2022-08-24T00:08:07;2.95;;;1.00;;
56363;SDS011;42261;52.094;4.326;2022-08-24T00:10:52;1.38;;;0.90;;
56363;SDS011;42261;52.094;4.326;2022-08-24T00:13:36;1.20;;;0.93;;
56363;SDS011;42261;52.094;4.326;2022-08-24T00:16:22;2.50;;;1.00;;
56363;SDS011;42261;52.094;4.326;2022-08-24T00:19:06;1.67;;;1.00;;
56363;SDS011;42261;52.094;4.326;2022-08-24T00:21:51;1.83;;;0.82;;
56363;SDS011;42261;52.094;4.326;2022-08-24T00:24:35;1.45;;;0.73;;
56363;SDS011;42261;52.094;4.326;2022-08-24T00:27:20;1.80;;;0.90;;
56363;SDS011;42261;52.094;4.326;2022-08-24T00:30:05;2.10;;;0.90;;
56363;SDS011;42261;52.094;4.326;2022-08-24T00:32:51;1.52;;;0.88;;
56363;SDS011;42261;52.094;4.326;2022-08-24T00:35:36;2.83;;;0.80;;
56363;SDS011;42261;52.094;4.326;2022-08-24T00:38:21;0.80;;;0.80;;
56363;SDS011;42261;52.094;4.326;2022-08-24T00:41:05;1.40;;;0.90;;
56363;SDS011;42261;52.094;4.326;2022-08-24T00:43:50;4.50;;;0.80;;
56363;SDS011;42261;52.094;4.326;2022-08-24T00:46:41;2.47;;;0.90;;
56363;SDS011;42261;52.094;4.326;2022-08-24T00:49:37;2.63;;;0.90;;
56363;SDS011;42261;52.094;4.326;2022-08-24T00:52:32;2.22;;;0.85;;
56363;SDS011;42261;52.094;4.326;2022-08-24T00:55:21;1.88;;;0.93;;
56363;SDS011;42261;52.094;4.326;2022-08-24T00:58:12;1.05;;;0.95;;
56363;SDS011;42261;52.094;4.326;2022-08-24T01:01:01;0.95;;;0.80;;
56363;SDS011;42261;52.094;4.326;2022-08-24T01:03:47;2.33;;;1.00;;
56363;SDS011;42261;52.094;4.326;2022-08-24T01:06:31;2.90;;;1.20;;
56363;SDS011;42261;52.094;4.326;2022-08-24T01:09:16;2.05;;;1.00;;
56363;SDS011;42261;52.094;4.326;2022-08-24T01:12:00;1.77;;;0.90;;
56363;SDS011;42261;52.094;4.326;2022-08-24T01:14:45;2.65;;;1.13;;
56363;SDS011;42261;52.094;4.326;2022-08-24T01:17:29;1.88;;;1.08;;
56363;SDS011;42261;52.094;4.326;2022-08-24T01:20:33;1.15;;;0.80;;
56363;SDS011;42261;52.094;4.326;2022-08-24T01:26:18;4.15;;;1.05;;
56363;SDS011;42261;52.094;4.326;2022-08-24T01:29:10;1.38;;;0.80;;
56363;SDS011;42261;52.094;4.326;2022-08-24T01:31:57;2.75;;;1.20;;
56363;SDS011;42261;52.094;4.326;2022-08-24T01:34:41;5.82;;;1.20;;
56363;SDS011;42261;52.094;4.326;2022-08-24T01:37:26;1.77;;;1.00;;
56363;SDS011;42261;52.094;4.326;2022-08-24T01:40:10;2.13;;;0.90;;
56363;SDS011;42261;52.094;4.326;2022-08-24T01:42:55;1.67;;;0.75;;
56363;SDS011;42261;52.094;4.326;2022-08-24T01:45:41;1.88;;;0.90;;
56363;SDS011;42261;52.094;4.326;2022-08-24T01:48:25;1.02;;;0.93;;
56363;SDS011;42261;52.094;4.326;2022-08-24T01:51:09;2.17;;;0.75;;
56363;SDS011;42261;52.094;4.326;2022-08-24T01:53:53;1.27;;;0.68;;
56363;SDS011;42261;52.094;4.326;2022-08-24T01:56:38;1.55;;;0.80;;
56363;SDS011;42261;52.094;4.326;2022-08-24T01:59:26;1.38;;;0.80;;
56363;SDS011;42261;52.094;4.326;2022-08-24T02:02:18;1.15;;;0.80;;
56363;SDS011;42261;52.094;4.326;2022-08-24T02:05:07;1.60;;;0.98;;
56363;SDS011;42261;52.094;4.326;2022-08-24T02:07:52;2.75;;;1.00;;
56363;SDS011;42261;52.094;4.326;2022-08-24T02:10:36;1.52;;;0.80;;
56363;SDS011;42261;52.094;4.326;2022-08-24T02:13:21;1.50;;;0.80;;
56363;SDS011;42261;52.094;4.326;2022-08-24T02:16:05;0.98;;;0.75;;
56363;SDS011;42261;52.094;4.326;2022-08-24T02:18:49;1.10;;;0.80;;
56363;SDS011;42261;52.094;4.326;2022-08-24T02:21:33;1.60;;;0.90;;
56363;SDS011;42261;52.094;4.326;2022-08-24T02:24:18;0.70;;;0.70;;
56363;SDS011;42261;52.094;4.326;2022-08-24T02:27:02;1.85;;;1.00;;
56363;SDS011;42261;52.094;4.326;2022-08-24T02:29:47;2.78;;;0.98;;
56363;SDS011;42261;52.094;4.326;2022-08-24T02:32:31;2.53;;;1.10;;
56363;SDS011;42261;52.094;4.326;2022-08-24T02:35:15;1.48;;;0.90;;
56363;SDS011;42261;52.094;4.326;2022-08-24T02:38:00;1.90;;;1.10;;
56363;SDS011;42261;52.094;4.326;2022-08-24T02:40:44;1.58;;;0.90;;
56363;SDS011;42261;52.094;4.326;2022-08-24T02:43:29;1.60;;;1.02;;
56363;SDS011;42261;52.094;4.326;2022-08-24T02:46:26;2.38;;;1.15;;
56363;SDS011;42261;52.094;4.326;2022-08-24T02:49:11;2.17;;;1.13;;
56363;SDS011;42261;52.094;4.326;2022-08-24T02:51:56;3.47;;;1.20;;
56363;SDS011;42261;52.094;4.326;2022-08-24T02:54:40;2.22;;;1.30;;
56363;SDS011;42261;52.094;4.326;2022-08-24T02:57:24;5.18;;;1.27;;
56363;SDS011;42261;52.094;4.326;2022-08-24T03:00:11;3.10;;;1.30;;
56363;SDS011;42261;52.094;4.326;2022-08-24T03:02:56;3.03;;;1.25;;
56363;SDS011;42261;52.094;4.326;2022-08-24T03:05:41;2.85;;;1.20;;
56363;SDS011;42261;52.094;4.326;2022-08-24T03:08:25;3.60;;;1.40;;
56363;SDS011;42261;52.094;4.326;2022-08-24T03:11:10;3.15;;;1.33;;
56363;SDS011;42261;52.094;4.326;2022-08-24T03:13:55;2.85;;;1.88;;
56363;SDS011;42261;52.094;4.326;2022-08-24T03:16:41;6.68;;;1.98;;
56363;SDS011;42261;52.094;4.326;2022-08-24T03:19:25;6.47;;;1.75;;
56363;SDS011;42261;52.094;4.326;2022-08-24T03:22:09;2.50;;;1.70;;
56363;SDS011;42261;52.094;4.326;2022-08-24T03:24:53;4.95;;;1.90;;
56363;SDS011;42261;52.094;4.326;2022-08-24T03:27:37;4.55;;;1.70;;
56363;SDS011;42261;52.094;4.326;2022-08-24T03:30:23;4.00;;;2.13;;
56363;SDS011;42261;52.094;4.326;2022-08-24T03:33:08;5.25;;;2.28;;
56363;SDS011;42261;52.094;4.326;2022-08-24T03:35:53;3.65;;;2.33;;
56363;SDS011;42261;52.094;4.326;2022-08-24T03:38:37;6.07;;;2.85;;
56363;SDS011;42261;52.094;4.326;2022-08-24T03:41:22;2.63;;;1.98;;
56363;SDS011;42261;52.094;4.326;2022-08-24T03:44:07;3.28;;;2.28;;
56363;SDS011;42261;52.094;4.326;2022-08-24T03:46:51;4.07;;;2.60;;
56363;SDS011;42261;52.094;4.326;2022-08-24T03:49:36;3.70;;;2.70;;
56363;SDS011;42261;52.094;4.326;2022-08-24T03:52:21;4.47;;;2.45;;
56363;SDS011;42261;52.094;4.326;2022-08-24T03:55:06;5.22;;;2.65;;
56363;SDS011;42261;52.094;4.326;2022-08-24T03:57:50;3.05;;;2.42;;
56363;SDS011;42261;52.094;4.326;2022-08-24T04:00:35;4.50;;;2.83;;
56363;SDS011;42261;52.094;4.326;2022-08-24T04:03:23;5.38;;;2.30;;
56363;SDS011;42261;52.094;4.326;2022-08-24T04:06:07;3.92;;;2.50;;
56363;SDS011;42261;52.094;4.326;2022-08-24T04:08:52;5.30;;;2.53;;
56363;SDS011;42261;52.094;4.326;2022-08-24T04:11:37;4.05;;;2.30;;
56363;SDS011;42261;52.094;4.326;2022-08-24T04:14:21;4.45;;;1.90;;
56363;SDS011;42261;52.094;4.326;2022-08-24T04:17:06;4.47;;;2.28;;
56363;SDS011;42261;52.094;4.326;2022-08-24T04:19:50;5.90;;;2.22;;
56363;SDS011;42261;52.094;4.326;2022-08-24T04:22:40;3.83;;;1.88;;
56363;SDS011;42261;52.094;4.326;2022-08-24T04:25:24;3.25;;;2.00;;
56363;SDS011;42261;52.094;4.326;2022-08-24T04:28:09;3.78;;;2.13;;
56363;SDS011;42261;52.094;4.326;2022-08-24T04:30:54;3.40;;;2.08;;
56363;SDS011;42261;52.094;4.326;2022-08-24T04:33:40;2.17;;;1.45;;
56363;SDS011;42261;52.094;4.326;2022-08-24T04:36:25;3.63;;;1.92;;
56363;SDS011;42261;52.094;4.326;2022-08-24T04:39:10;3.47;;;1.77;;
56363;SDS011;42261;52.094;4.326;2022-08-24T04:41:54;3.78;;;1.77;;
56363;SDS011;42261;52.094;4.326;2022-08-24T04:44:39;2.92;;;1.77;;
56363;SDS011;42261;52.094;4.326;2022-08-24T04:47:24;5.38;;;2.00;;
56363;SDS011;42261;52.094;4.326;2022-08-24T04:50:08;4.55;;;1.92;;
56363;SDS011;42261;52.094;4.326;2022-08-24T04:52:53;2.33;;;1.70;;
56363;SDS011;42261;52.094;4.326;2022-08-24T04:55:44;4.97;;;1.80;;
56363;SDS011;42261;52.094;4.326;2022-08-24T04:58:30;2.13;;;1.60;;
56363;SDS011;42261;52.094;4.326;2022-08-24T05:01:15;4.38;;;1.70;;
56363;SDS011;42261;52.094;4.326;2022-08-24T05:04:02;4.30;;;1.88;;
56363;SDS011;42261;52.094;4.326;2022-08-24T05:06:47;3.97;;;2.33;;
56363;SDS011;42261;52.094;4.326;2022-08-24T05:09:31;5.82;;;1.98;;
56363;SDS011;42261;52.094;4.326;2022-08-24T05:12:16;6.43;;;2.00;;
56363;SDS011;42261;52.094;4.326;2022-08-24T05:15:00;5.32;;;2.40;;
56363;SDS011;42261;52.094;4.326;2022-08-24T05:17:44;4.72;;;2.05;;
56363;SDS011;42261;52.094;4.326;2022-08-24T05:20:29;4.22;;;2.00;;
56363;SDS011;42261;52.094;4.326;2022-08-24T05:23:13;3.60;;;2.05;;
56363;SDS011;42261;52.094;4.326;2022-08-24T05:26:04;4.88;;;1.90;;
56363;SDS011;42261;52.094;4.326;2022-08-24T05:28:52;5.80;;;1.65;;
56363;SDS011;42261;52.094;4.326;2022-08-24T05:31:42;2.88;;;1.35;;
56363;SDS011;42261;52.094;4.326;2022-08-24T05:34:27;3.03;;;1.50;;
56363;SDS011;42261;52.094;4.326;2022-08-24T05:37:11;3.63;;;1.50;;
56363;SDS011;42261;52.094;4.326;2022-08-24T05:39:55;4.53;;;1.98;;
56363;SDS011;42261;52.094;4.326;2022-08-24T05:42:40;4.63;;;1.50;;
56363;SDS011;42261;52.094;4.326;2022-08-24T05:45:24;3.33;;;1.55;;
56363;SDS011;42261;52.094;4.326;2022-08-24T05:48:08;2.65;;;1.63;;
56363;SDS011;42261;52.094;4.326;2022-08-24T05:50:53;3.53;;;1.30;;
56363;SDS011;42261;52.094;4.326;2022-08-24T05:53:38;4.22;;;2.00;;
56363;SDS011;42261;52.094;4.326;2022-08-24T05:56:23;2.55;;;1.27;;
56363;SDS011;42261;52.094;4.326;2022-08-24T05:59:07;4.40;;;1.50;;
56363;SDS011;42261;52.094;4.326;2022-08-24T06:01:52;3.60;;;1.25;;
56363;SDS011;42261;52.094;4.326;2022-08-24T06:04:36;3.33;;;1.67;;
56363;SDS011;42261;52.094;4.326;2022-08-24T06:07:21;3.35;;;1.50;;
56363;SDS011;42261;52.094;4.326;2022-08-24T06:10:06;4.38;;;1.58;;
56363;SDS011;42261;52.094;4.326;2022-08-24T06:12:50;2.10;;;1.45;;
56363;SDS011;42261;52.094;4.326;2022-08-24T06:15:34;3.55;;;1.92;;
56363;SDS011;42261;52.094;4.326;2022-08-24T06:18:18;4.07;;;1.35;;
56363;SDS011;42261;52.094;4.326;2022-08-24T06:21:07;2.95;;;1.13;;
56363;SDS011;42261;52.094;4.326;2022-08-24T06:23:53;3.65;;;1.80;;
56363;SDS011;42261;52.094;4.326;2022-08-24T06:26:38;4.35;;;2.03;;
56363;SDS011;42261;52.094;4.326;2022-08-24T06:29:41;4.45;;;1.95;;
56363;SDS011;42261;52.094;4.326;2022-08-24T06:32:25;3.58;;;1.90;;
56363;SDS011;42261;52.094;4.326;2022-08-24T06:35:11;4.15;;;2.33;;
56363;SDS011;42261;52.094;4.326;2022-08-24T06:37:55;4.55;;;2.90;;
56363;SDS011;42261;52.094;4.326;2022-08-24T06:40:40;4.30;;;2.25;;
56363;SDS011;42261;52.094;4.326;2022-08-24T06:43:25;7.90;;;3.20;;
56363;SDS011;42261;52.094;4.326;2022-08-24T06:46:10;6.28;;;3.00;;
56363;SDS011;42261;52.094;4.326;2022-08-24T06:48:54;8.77;;;2.53;;
56363;SDS011;42261;52.094;4.326;2022-08-24T06:51:39;3.55;;;2.50;;
56363;SDS011;42261;52.094;4.326;2022-08-24T06:54:23;5.15;;;2.90;;
56363;SDS011;42261;52.094;4.326;2022-08-24T06:57:07;6.63;;;3.22;;
56363;SDS011;42261;52.094;4.326;2022-08-24T06:59:51;3.92;;;2.63;;
56363;SDS011;42261;52.094;4.326;2022-08-24T07:02:36;4.35;;;2.47;;
56363;SDS011;42261;52.094;4.326;2022-08-24T07:05:20;8.20;;;2.67;;
56363;SDS011;42261;52.094;4.326;2022-08-24T07:08:04;5.20;;;2.70;;
56363;SDS011;42261;52.094;4.326;2022-08-24T07:10:50;13.77;;;3.20;;
56363;SDS011;42261;52.094;4.326;2022-08-24T07:13:34;5.13;;;2.65;;
56363;SDS011;42261;52.094;4.326;2022-08-24T07:16:19;7.72;;;3.28;;
56363;SDS011;42261;52.094;4.326;2022-08-24T07:19:04;6.00;;;2.97;;
56363;SDS011;42261;52.094;4.326;2022-08-24T07:21:48;5.53;;;3.08;;
56363;SDS011;42261;52.094;4.326;2022-08-24T07:24:33;6.63;;;2.33;;
56363;SDS011;42261;52.094;4.326;2022-08-24T07:27:17;4.57;;;2.10;;
56363;SDS011;42261;52.094;4.326;2022-08-24T07:30:01;3.78;;;2.03;;
56363;SDS011;42261;52.094;4.326;2022-08-24T07:32:45;5.95;;;1.88;;
56363;SDS011;42261;52.094;4.326;2022-08-24T07:35:30;2.70;;;1.75;;
56363;SDS011;42261;52.094;4.326;2022-08-24T07:38:16;3.83;;;1.80;;
56363;SDS011;42261;52.094;4.326;2022-08-24T07:41:00;6.95;;;2.50;;
56363;SDS011;42261;52.094;4.326;2022-08-24T07:43:45;5.82;;;2.28;;
56363;SDS011;42261;52.094;4.326;2022-08-24T07:46:30;3.70;;;2.28;;
56363;SDS011;42261;52.094;4.326;2022-08-24T07:49:15;3.50;;;2.28;;
56363;SDS011;42261;52.094;4.326;2022-08-24T07:51:59;4.30;;;2.10;;
56363;SDS011;42261;52.094;4.326;2022-08-24T07:54:44;6.00;;;2.70;;
56363;SDS011;42261;52.094;4.326;2022-08-24T07:57:28;4.88;;;2.30;;
56363;SDS011;42261;52.094;4.326;2022-08-24T08:00:14;4.65;;;2.30;;
56363;SDS011;42261;52.094;4.326;2022-08-24T08:02:59;5.25;;;2.30;;
56363;SDS011;42261;52.094;4.326;2022-08-24T08:05:45;3.03;;;2.45;;
56363;SDS011;42261;52.094;4.326;2022-08-24T08:08:30;4.85;;;2.15;;
56363;SDS011;42261;52.094;4.326;2022-08-24T08:11:15;2.63;;;1.77;;
56363;SDS011;42261;52.094;4.326;2022-08-24T08:14:00;4.68;;;1.77;;
56363;SDS011;42261;52.094;4.326;2022-08-24T08:16:44;6.50;;;1.92;;
56363;SDS011;42261;52.094;4.326;2022-08-24T08:19:28;6.00;;;2.20;;
56363;SDS011;42261;52.094;4.326;2022-08-24T08:22:13;2.58;;;1.40;;
56363;SDS011;42261;52.094;4.326;2022-08-24T08:25:15;3.17;;;1.40;;
56363;SDS011;42261;52.094;4.326;2022-08-24T08:28:01;5.28;;;1.58;;
56363;SDS011;42261;52.094;4.326;2022-08-24T08:30:46;2.38;;;1.40;;
56363;SDS011;42261;52.094;4.326;2022-08-24T08:33:30;4.28;;;1.52;;
56363;SDS011;42261;52.094;4.326;2022-08-24T08:36:14;3.35;;;1.35;;
56363;SDS011;42261;52.094;4.326;2022-08-24T08:38:59;3.22;;;2.05;;
56363;SDS011;42261;52.094;4.326;2022-08-24T08:54:12;2.33;;;0.63;;
56363;SDS011;42261;52.094;4.326;2022-08-24T09:00:21;2.95;;;0.70;;
56363;SDS011;42261;52.094;4.326;2022-08-24T09:03:14;1.25;;;0.40;;
56363;SDS011;42261;52.094;4.326;2022-08-24T09:34:02;3.33;;;0.52;;
56363;SDS011;42261;52.094;4.326;2022-08-24T09:37:13;0.95;;;0.30;;
56363;SDS011;42261;52.094;4.326;2022-08-24T09:40:16;0.55;;;0.40;;
56363;SDS011;42261;52.094;4.326;2022-08-24T09:49:32;0.50;;;0.40;;
56363;SDS011;42261;52.094;4.326;2022-08-24T10:01:37;1.42;;;0.40;;
56363;SDS011;42261;52.094;4.326;2022-08-24T10:07:41;1.42;;;0.73;;
56363;SDS011;42261;52.094;4.326;2022-08-24T10:19:37;1.85;;;0.95;;
56363;SDS011;42261;52.094;4.326;2022-08-24T10:25:53;2.97;;;1.10;;
56363;SDS011;42261;52.094;4.326;2022-08-24T10:28:50;3.22;;;1.20;;
56363;SDS011;42261;52.094;4.326;2022-08-24T10:31:46;4.35;;;1.60;;
56363;SDS011;42261;52.094;4.326;2022-08-24T10:37:53;1.88;;;1.05;;
56363;SDS011;42261;52.094;4.326;2022-08-24T10:47:21;1.20;;;0.90;;
56363;SDS011;42261;52.094;4.326;2022-08-24T10:53:05;1.23;;;0.90;;
56363;SDS011;42261;52.094;4.326;2022-08-24T10:56:16;1.40;;;1.00;;
56363;SDS011;42261;52.094;4.326;2022-08-24T10:59:10;1.92;;;1.00;;
56363;SDS011;42261;52.094;4.326;2022-08-24T11:02:05;1.70;;;1.10;;
56363;SDS011;42261;52.094;4.326;2022-08-24T11:04:56;0.75;;;0.70;;
56363;SDS011;42261;52.094;4.326;2022-08-24T11:07:59;1.30;;;0.80;;
56363;SDS011;42261;52.094;4.326;2022-08-24T11:11:09;1.05;;;0.70;;
56363;SDS011;42261;52.094;4.326;2022-08-24T11:14:08;4.40;;;0.90;;
56363;SDS011;42261;52.094;4.326;2022-08-24T11:17:16;0.60;;;0.55;;
56363;SDS011;42261;52.094;4.326;2022-08-24T11:20:02;3.70;;;0.90;;
56363;SDS011;42261;52.094;4.326;2022-08-24T11:28:45;1.30;;;0.50;;
56363;SDS011;42261;52.094;4.326;2022-08-24T11:31:41;1.70;;;0.80;;
56363;SDS011;42261;52.094;4.326;2022-08-24T11:34:35;3.08;;;0.70;;
56363;SDS011;42261;52.094;4.326;2022-08-24T11:37:24;1.38;;;0.70;;
56363;SDS011;42261;52.094;4.326;2022-08-24T11:40:15;0.80;;;0.60;;
56363;SDS011;42261;52.094;4.326;2022-08-24T12:01:18;0.80;;;0.70;;
56363;SDS011;42261;52.094;4.326;2022-08-24T12:15:36;3.17;;;0.73;;
56363;SDS011;42261;52.094;4.326;2022-08-24T12:18:32;2.17;;;0.77;;
56363;SDS011;42261;52.094;4.326;2022-08-24T12:21:35;0.77;;;0.60;;
56363;SDS011;42261;52.094;4.326;2022-08-24T12:27:21;2.05;;;0.60;;
56363;SDS011;42261;52.094;4.326;2022-08-24T12:30:11;2.15;;;0.80;;
56363;SDS011;42261;52.094;4.326;2022-08-24T12:32:59;0.80;;;0.60;;
56363;SDS011;42261;52.094;4.326;2022-08-24T12:35:47;1.27;;;0.80;;
56363;SDS011;42261;52.094;4.326;2022-08-24T12:38:41;0.77;;;0.50;;
56363;SDS011;42261;52.094;4.326;2022-08-24T12:41:39;1.33;;;0.50;;
56363;SDS011;42261;52.094;4.326;2022-08-24T12:44:41;2.58;;;0.77;;
56363;SDS011;42261;52.094;4.326;2022-08-24T12:47:35;1.15;;;0.55;;
56363;SDS011;42261;52.094;4.326;2022-08-24T12:50:27;1.17;;;0.50;;
56363;SDS011;42261;52.094;4.326;2022-08-24T12:59:30;1.05;;;0.60;;
56363;SDS011;42261;52.094;4.326;2022-08-24T13:05:09;2.20;;;0.70;;
56363;SDS011;42261;52.094;4.326;2022-08-24T13:07:55;1.63;;;0.63;;
56363;SDS011;42261;52.094;4.326;2022-08-24T13:10:58;1.38;;;0.60;;
56363;SDS011;42261;52.094;4.326;2022-08-24T13:19:40;2.13;;;0.77;;
56363;SDS011;42261;52.094;4.326;2022-08-24T13:25:21;1.40;;;0.65;;
56363;SDS011;42261;52.094;4.326;2022-08-24T13:28:26;1.10;;;0.52;;
56363;SDS011;42261;52.094;4.326;2022-08-24T13:31:29;7.45;;;0.73;;
56363;SDS011;42261;52.094;4.326;2022-08-24T13:37:10;1.48;;;0.50;;
56363;SDS011;42261;52.094;4.326;2022-08-24T13:46:00;0.73;;;0.43;;
56363;SDS011;42261;52.094;4.326;2022-08-24T13:49:13;0.82;;;0.50;;
56363;SDS011;42261;52.094;4.326;2022-08-24T13:55:06;0.88;;;0.50;;
56363;SDS011;42261;52.094;4.326;2022-08-24T13:58:54;2.88;;;0.65;;
56363;SDS011;42261;52.094;4.326;2022-08-24T14:29:34;1.42;;;0.80;;
56363;SDS011;42261;52.094;4.326;2022-08-24T14:35:16;3.25;;;0.90;;
56363;SDS011;42261;52.094;4.326;2022-08-24T14:50:21;4.60;;;1.33;;
56363;SDS011;42261;52.094;4.326;2022-08-24T14:53:43;3.85;;;0.85;;
56363;SDS011;42261;52.094;4.326;2022-08-24T14:59:53;2.33;;;1.30;;
56363;SDS011;42261;52.094;4.326;2022-08-24T15:06:39;3.08;;;1.27;;
56363;SDS011;42261;52.094;4.326;2022-08-24T15:09:30;1.60;;;0.95;;
56363;SDS011;42261;52.094;4.326;2022-08-24T15:30:18;1.60;;;1.35;;
56363;SDS011;42261;52.094;4.326;2022-08-24T15:32:52;2.53;;;1.40;;
56363;SDS011;42261;52.094;4.326;2022-08-24T15:36:09;4.43;;;1.80;;
56363;SDS011;42261;52.094;4.326;2022-08-24T15:38:54;2.50;;;1.45;;
56363;SDS011;42261;52.094;4.326;2022-08-24T15:41:39;3.33;;;1.42;;
56363;SDS011;42261;52.094;4.326;2022-08-24T15:44:28;2.08;;;1.50;;
56363;SDS011;42261;52.094;4.326;2022-08-24T15:50:18;1.88;;;1.40;;
56363;SDS011;42261;52.094;4.326;2022-08-24T15:59:08;1.38;;;1.20;;
56363;SDS011;42261;52.094;4.326;2022-08-24T16:02:15;2.95;;;1.50;;
56363;SDS011;42261;52.094;4.326;2022-08-24T16:08:09;2.25;;;1.30;;
56363;SDS011;42261;52.094;4.326;2022-08-24T16:10:55;2.58;;;1.50;;
56363;SDS011;42261;52.094;4.326;2022-08-24T16:13:40;2.10;;;1.30;;
56363;SDS011;42261;52.094;4.326;2022-08-24T16:16:43;3.42;;;1.42;;
56363;SDS011;42261;52.094;4.326;2022-08-24T16:19:31;1.90;;;1.58;;
56363;SDS011;42261;52.094;4.326;2022-08-24T16:22:24;2.55;;;1.70;;
56363;SDS011;42261;52.094;4.326;2022-08-24T16:25:17;2.67;;;1.50;;
56363;SDS011;42261;52.094;4.326;2022-08-24T16:28:31;1.67;;;1.10;;
56363;SDS011;42261;52.094;4.326;2022-08-24T16:34:29;5.35;;;1.50;;
56363;SDS011;42261;52.094;4.326;2022-08-24T16:37:15;1.50;;;1.40;;
56363;SDS011;42261;52.094;4.326;2022-08-24T16:40:03;1.80;;;1.30;;
56363;SDS011;42261;52.094;4.326;2022-08-24T16:42:48;3.65;;;1.50;;
56363;SDS011;42261;52.094;4.326;2022-08-24T16:45:32;1.40;;;1.30;;
56363;SDS011;42261;52.094;4.326;2022-08-24T16:48:19;1.55;;;1.20;;
56363;SDS011;42261;52.094;4.326;2022-08-24T16:51:04;2.35;;;1.60;;
56363;SDS011;42261;52.094;4.326;2022-08-24T16:53:50;1.20;;;1.10;;
56363;SDS011;42261;52.094;4.326;2022-08-24T16:56:35;1.83;;;1.50;;
56363;SDS011;42261;52.094;4.326;2022-08-24T16:59:30;1.17;;;1.08;;
56363;SDS011;42261;52.094;4.326;2022-08-24T17:02:16;1.75;;;1.20;;
56363;SDS011;42261;52.094;4.326;2022-08-24T17:05:02;5.45;;;1.38;;
56363;SDS011;42261;52.094;4.326;2022-08-24T17:07:47;5.82;;;1.27;;
56363;SDS011;42261;52.094;4.326;2022-08-24T17:10:33;2.90;;;1.25;;
56363;SDS011;42261;52.094;4.326;2022-08-24T17:13:19;6.65;;;1.40;;
56363;SDS011;42261;52.094;4.326;2022-08-24T17:16:05;2.38;;;1.33;;
56363;SDS011;42261;52.094;4.326;2022-08-24T17:18:57;3.47;;;1.70;;
56363;SDS011;42261;52.094;4.326;2022-08-24T17:21:45;2.80;;;1.83;;
56363;SDS011;42261;52.094;4.326;2022-08-24T17:24:32;3.63;;;1.70;;
56363;SDS011;42261;52.094;4.326;2022-08-24T17:27:18;4.03;;;2.10;;
56363;SDS011;42261;52.094;4.326;2022-08-24T17:30:04;2.47;;;2.03;;
56363;SDS011;42261;52.094;4.326;2022-08-24T17:32:51;4.88;;;2.08;;
56363;SDS011;42261;52.094;4.326;2022-08-24T17:35:36;3.95;;;2.00;;
56363;SDS011;42261;52.094;4.326;2022-08-24T17:38:21;3.28;;;1.77;;
56363;SDS011;42261;52.094;4.326;2022-08-24T17:41:06;2.10;;;1.77;;
56363;SDS011;42261;52.094;4.326;2022-08-24T17:43:50;3.15;;;2.00;;
56363;SDS011;42261;52.094;4.326;2022-08-24T17:46:35;3.22;;;2.00;;
56363;SDS011;42261;52.094;4.326;2022-08-24T17:49:20;3.20;;;1.90;;
56363;SDS011;42261;52.094;4.326;2022-08-24T17:52:05;3.35;;;2.00;;
56363;SDS011;42261;52.094;4.326;2022-08-24T17:54:50;3.60;;;1.63;;
56363;SDS011;42261;52.094;4.326;2022-08-24T17:57:34;2.83;;;1.95;;
56363;SDS011;42261;52.094;4.326;2022-08-24T18:00:21;3.08;;;1.90;;
56363;SDS011;42261;52.094;4.326;2022-08-24T18:03:05;5.50;;;1.92;;
56363;SDS011;42261;52.094;4.326;2022-08-24T18:05:50;4.45;;;1.60;;
56363;SDS011;42261;52.094;4.326;2022-08-24T18:08:36;2.53;;;2.00;;
56363;SDS011;42261;52.094;4.326;2022-08-24T18:11:22;3.47;;;2.53;;
56363;SDS011;42261;52.094;4.326;2022-08-24T18:14:07;3.33;;;1.70;;
56363;SDS011;42261;52.094;4.326;2022-08-24T18:16:57;3.65;;;2.05;;
56363;SDS011;42261;52.094;4.326;2022-08-24T18:19:45;2.30;;;1.80;;
56363;SDS011;42261;52.094;4.326;2022-08-24T18:22:29;3.00;;;2.00;;
56363;SDS011;42261;52.094;4.326;2022-08-24T18:25:15;4.00;;;2.00;;
56363;SDS011;42261;52.094;4.326;2022-08-24T18:28:11;2.55;;;1.88;;
56363;SDS011;42261;52.094;4.326;2022-08-24T18:30:57;7.95;;;1.77;;
56363;SDS011;42261;52.094;4.326;2022-08-24T18:33:42;2.60;;;1.85;;
56363;SDS011;42261;52.094;4.326;2022-08-24T18:36:29;3.25;;;1.75;;
56363;SDS011;42261;52.094;4.326;2022-08-24T18:39:20;2.03;;;1.55;;
56363;SDS011;42261;52.094;4.326;2022-08-24T18:42:13;3.13;;;1.85;;
56363;SDS011;42261;52.094;4.326;2022-08-24T18:44:58;3.58;;;2.10;;
56363;SDS011;42261;52.094;4.326;2022-08-24T18:47:46;5.33;;;3.10;;
56363;SDS011;42261;52.094;4.326;2022-08-24T18:50:36;3.90;;;1.95;;
56363;SDS011;42261;52.094;4.326;2022-08-24T18:53:30;3.22;;;1.92;;
56363;SDS011;42261;52.094;4.326;2022-08-24T18:56:16;2.75;;;2.10;;
56363;SDS011;42261;52.094;4.326;2022-08-24T18:59:09;2.30;;;1.70;;
56363;SDS011;42261;52.094;4.326;2022-08-24T19:01:57;3.95;;;2.00;;
56363;SDS011;42261;52.094;4.326;2022-08-24T19:05:15;5.25;;;2.00;;
56363;SDS011;42261;52.094;4.326;2022-08-24T19:08:02;3.92;;;2.10;;
56363;SDS011;42261;52.094;4.326;2022-08-24T19:10:49;3.00;;;1.98;;
56363;SDS011;42261;52.094;4.326;2022-08-24T19:13:36;3.25;;;1.90;;
56363;SDS011;42261;52.094;4.326;2022-08-24T19:16:26;3.53;;;2.00;;
56363;SDS011;42261;52.094;4.326;2022-08-24T19:19:13;3.83;;;2.10;;
56363;SDS011;42261;52.094;4.326;2022-08-24T19:21:58;3.20;;;2.40;;
56363;SDS011;42261;52.094;4.326;2022-08-24T19:24:43;2.75;;;2.17;;
56363;SDS011;42261;52.094;4.326;2022-08-24T19:27:29;1.95;;;1.63;;
56363;SDS011;42261;52.094;4.326;2022-08-24T19:30:14;3.25;;;1.88;;
56363;SDS011;42261;52.094;4.326;2022-08-24T19:32:58;3.40;;;2.15;;
56363;SDS011;42261;52.094;4.326;2022-08-24T19:35:44;2.95;;;2.17;;
56363;SDS011;42261;52.094;4.326;2022-08-24T19:38:29;3.78;;;2.13;;
56363;SDS011;42261;52.094;4.326;2022-08-24T19:41:13;3.20;;;2.00;;
56363;SDS011;42261;52.094;4.326;2022-08-24T19:43:58;6.05;;;2.40;;
56363;SDS011;42261;52.094;4.326;2022-08-24T19:47:03;3.58;;;2.10;;
56363;SDS011;42261;52.094;4.326;2022-08-24T19:49:52;3.78;;;2.08;;
56363;SDS011;42261;52.094;4.326;2022-08-24T19:52:37;3.95;;;2.15;;
56363;SDS011;42261;52.094;4.326;2022-08-24T19:55:23;7.90;;;3.28;;
56363;SDS011;42261;52.094;4.326;2022-08-24T19:58:29;3.80;;;2.30;;
56363;SDS011;42261;52.094;4.326;2022-08-24T20:01:24;3.63;;;2.35;;
56363;SDS011;42261;52.094;4.326;2022-08-24T20:04:10;5.15;;;2.45;;
56363;SDS011;42261;52.094;4.326;2022-08-24T20:06:57;8.20;;;2.88;;
56363;SDS011;42261;52.094;4.326;2022-08-24T20:09:42;4.20;;;2.50;;
56363;SDS011;42261;52.094;4.326;2022-08-24T20:12:26;4.30;;;2.30;;
56363;SDS011;42261;52.094;4.326;2022-08-24T20:15:11;3.72;;;2.40;;
56363;SDS011;42261;52.094;4.326;2022-08-24T20:17:57;4.63;;;2.88;;
56363;SDS011;42261;52.094;4.326;2022-08-24T20:20:42;4.25;;;3.08;;
56363;SDS011;42261;52.094;4.326;2022-08-24T20:23:27;3.75;;;3.33;;
56363;SDS011;42261;52.094;4.326;2022-08-24T20:26:12;4.35;;;2.80;;
56363;SDS011;42261;52.094;4.326;2022-08-24T20:28:57;3.83;;;2.72;;
56363;SDS011;42261;52.094;4.326;2022-08-24T20:31:43;4.65;;;2.92;;
56363;SDS011;42261;52.094;4.326;2022-08-24T20:34:28;5.05;;;3.22;;
56363;SDS011;42261;52.094;4.326;2022-08-24T20:37:23;4.57;;;3.20;;
56363;SDS011;42261;52.094;4.326;2022-08-24T20:40:13;6.18;;;3.30;;
56363;SDS011;42261;52.094;4.326;2022-08-24T20:42:58;7.75;;;3.15;;
56363;SDS011;42261;52.094;4.326;2022-08-24T20:45:43;5.68;;;3.72;;
56363;SDS011;42261;52.094;4.326;2022-08-24T20:48:29;6.43;;;3.78;;
56363;SDS011;42261;52.094;4.326;2022-08-24T20:51:15;4.57;;;3.38;;
56363;SDS011;42261;52.094;4.326;2022-08-24T20:54:00;5.07;;;3.95;;
56363;SDS011;42261;52.094;4.326;2022-08-24T20:56:44;8.52;;;4.30;;